Zim Luanda — 9HA2029 — position and weather

sailwx.info

Track history (hours):
 
Tides and Currents Weather Stations Pressure Air Temp Water Temp Dewpoint Dewpoint Depression Visibility Wind Speed Wind Dir Waves Ship Positions

Zim Luanda

Last reported at 2016-Apr-26 20:26 UTC. Time now 2016-May-01 08:03 UTC.
Position N 36°44' W 010°16'.

Length 260 m; draft 11.7 m.

Type: Ship (hazmat cat A). MMSI: 249830000.

Date/timePositionNaut miles runAvg speedWind from/ knotsBaromVisibWave heightAir tempDewpointWater temp
2016-Apr-26 20:26N 36°44' W 010°16'1714.5
2016-Apr-26 19:17N 36°36' W 009°57'1114.7
2016-Apr-26 18:34N 36°32' W 009°45'1514.8
2016-Apr-26 17:33N 36°26' W 009°28'1514.7
2016-Apr-26 16:32N 36°19' W 009°12'1414.6
2016-Apr-26 15:34N 36°15' W 008°55'16114.2
2016-Apr-26 04:13N 35°58' W 005°37'813.0
2016-Apr-26 03:33N 35°60' W 005°27'1211.5
2016-Apr-26 02:33N 36°02' W 005°13'22113.7
2016-Apr-25 10:24N 37°19' W 000°54'1214.4
2016-Apr-25 09:33N 37°28' W 000°43'1414.1
2016-Apr-25 08:33N 37°37' W 000°30'1413.8
2016-Apr-25 07:33N 37°49' W 000°21'1313.5
2016-Apr-25 06:33N 38°00' W 000°12'8411.6
2016-Apr-24 23:21N 39°24' W 000°13'6 6.1
2016-Apr-24 22:26N 39°27' W 000°19'0 0.0
2016-Apr-24 21:32N 39°27' W 000°19'0 0.0
2016-Apr-24 20:32N 39°27' W 000°19'0 0.0
2016-Apr-24 19:32N 39°27' W 000°19'0 0.0
2016-Apr-24 18:29N 39°27' W 000°19'0 0.0
2016-Apr-24 17:32N 39°27' W 000°19'0 0.0
2016-Apr-24 16:32N 39°27' W 000°19'0 0.0
2016-Apr-24 15:29N 39°27' W 000°19'0 0.0
2016-Apr-24 14:29N 39°27' W 000°19'0 0.0
2016-Apr-24 13:29N 39°27' W 000°19'0 0.0
2016-Apr-24 12:32N 39°27' W 000°19'0 0.0
2016-Apr-24 11:32N 39°27' W 000°19'0 0.0
2016-Apr-24 10:29N 39°27' W 000°19'0 0.0
2016-Apr-24 09:29N 39°27' W 000°19'0 0.3
2016-Apr-24 08:34N 39°27' W 000°19'6 6.3
2016-Apr-24 07:33N 39°27' W 000°11'5211.7
2016-Apr-24 03:06N 40°03' E 000°38'611.5
2016-Apr-24 02:33N 40°08' E 000°44'1211.5
2016-Apr-24 01:32N 40°16' E 000°55'1211.9
2016-Apr-24 00:33N 40°24' E 001°06'1211.8
2016-Apr-23 23:33N 40°32' E 001°17'1211.6
2016-Apr-23 22:33N 40°40' E 001°28'1211.7
2016-Apr-23 21:33N 40°49' E 001°39'1211.6
2016-Apr-23 20:33N 40°57' E 001°50'1211.8
2016-Apr-23 19:33N 41°05' E 002°01'1411.9
2016-Apr-23 18:25N 41°17' E 002°11'4 1.1
2016-Apr-23 14:13N 41°21' E 002°10'0 0.0
2016-Apr-23 10:31N 41°21' E 002°10'19 6.5
2016-Apr-23 07:31N 41°04' E 001°58'1111.5
2016-Apr-23 06:33N 41°03' E 001°43'1111.2
2016-Apr-23 05:33N 41°03' E 001°28'1210.6
2016-Apr-23 04:26N 41°04' E 001°12'2 0.5
2016-Apr-22 23:04N 41°03' E 001°15'814.8
2016-Apr-22 22:33N 41°02' E 001°25'1716.8
2016-Apr-22 21:33N 41°04' E 001°47'1716.5
2016-Apr-22 20:32N 41°07' E 002°09'1717.3
2016-Apr-22 19:33N 41°15' E 002°29'1716.8
2016-Apr-22 18:33N 41°24' E 002°48'5617.2
2016-Apr-22 15:19N 41°50' E 003°54'18216.9
2016-Apr-22 04:33N 43°22' E 007°26'1717.2
2016-Apr-22 03:34N 43°33' E 007°45'1817.6
2016-Apr-22 02:33N 43°43' E 008°04'1817.6
2016-Apr-22 01:33N 43°54' E 008°23'1817.5
2016-Apr-22 00:33N 44°07' E 008°41'1716.8
2016-Apr-21 23:33N 44°19' E 008°56'5 5.2
2016-Apr-21 22:32N 44°24' E 008°54'0 0.0
2016-Apr-21 21:29N 44°24' E 008°54'0 0.0
2016-Apr-21 20:32N 44°24' E 008°54'0 0.0
2016-Apr-21 19:32N 44°24' E 008°54'0 0.0
2016-Apr-21 18:29N 44°24' E 008°54'0 0.0
2016-Apr-21 17:32N 44°24' E 008°54'0 0.0
2016-Apr-21 16:23N 44°24' E 008°54'0 0.0
2016-Apr-21 15:32N 44°24' E 008°54'0 0.0
2016-Apr-21 14:32N 44°24' E 008°54'0 0.0
2016-Apr-21 13:32N 44°24' E 008°54'0 0.0
2016-Apr-21 12:29N 44°24' E 008°54'0 0.0
2016-Apr-21 11:29N 44°24' E 008°54'0 0.0
2016-Apr-21 10:32N 44°24' E 008°54'0 0.0
2016-Apr-21 09:32N 44°24' E 008°54'0 0.0
2016-Apr-21 08:32N 44°24' E 008°54'0 0.0
2016-Apr-21 07:29N 44°24' E 008°54'0 0.0
2016-Apr-21 06:32N 44°24' E 008°54'0 0.0
2016-Apr-21 05:29N 44°24' E 008°54'1 0.6
2016-Apr-21 04:33N 44°24' E 008°54'4 4.5
2016-Apr-21 03:33N 44°21' E 008°59'1313.0
2016-Apr-21 02:34N 44°09' E 009°06'1616.4
2016-Apr-21 01:34N 43°55' E 009°17'1817.9
2016-Apr-21 00:34N 43°43' E 009°36'1818.2
2016-Apr-20 23:34N 43°31' E 009°55'1615.6
2016-Apr-20 22:33N 43°32' E 010°16'3 2.6
2016-Apr-20 21:31N 43°35' E 010°18'0 0.0
2016-Apr-20 20:31N 43°35' E 010°18'0 0.0
2016-Apr-20 19:31N 43°35' E 010°18'0 0.0
2016-Apr-20 18:31N 43°35' E 010°18'0 0.0
2016-Apr-20 17:31N 43°35' E 010°18'0 0.0
2016-Apr-20 16:31N 43°35' E 010°18'0 0.0
2016-Apr-20 15:31N 43°35' E 010°18'0 0.0
2016-Apr-20 14:31N 43°35' E 010°18'0 0.0
2016-Apr-20 13:31N 43°35' E 010°18'0 0.0
2016-Apr-20 12:31N 43°35' E 010°18'0 0.0
2016-Apr-20 11:31N 43°35' E 010°18'0 0.0
2016-Apr-20 10:31N 43°35' E 010°18'0 0.0
2016-Apr-20 09:31N 43°35' E 010°18'0 0.0
2016-Apr-20 08:31N 43°35' E 010°18'0 0.0
2016-Apr-20 07:34N 43°35' E 010°18'0 0.0
2016-Apr-20 06:34N 43°35' E 010°18'0 0.0
2016-Apr-20 05:33N 43°35' E 010°18'1 0.7
2016-Apr-20 04:33N 43°34' E 010°18'8 6.9
2016-Apr-20 03:20N 43°26' E 010°13'25914.6
2016-Apr-19 09:33N 39°57' E 013°38'1515.5
2016-Apr-19 08:33N 39°46' E 013°52'1515.4
2016-Apr-19 07:33N 39°35' E 014°06'1515.4
2016-Apr-19 06:33N 39°24' E 014°20'4815.4
2016-Apr-19 03:26N 38°50' E 015°03'1315.0
2016-Apr-19 02:33N 38°41' E 015°15'1514.9
2016-Apr-19 01:33N 38°30' E 015°28'1515.3
2016-Apr-19 00:34N 38°19' E 015°42'1515.1
2016-Apr-18 23:34N 38°04' E 015°37'1715.6
2016-Apr-18 22:30N 37°52' E 015°51'1716.3
2016-Apr-18 21:26N 37°47' E 016°12'1516.3
2016-Apr-18 20:30N 37°43' E 016°31'1616.3
2016-Apr-18 19:32N 37°38' E 016°49'1716.7
2016-Apr-18 18:33N 37°33' E 017°09'1716.7
2016-Apr-18 17:33N 37°29' E 017°30'1616.5
2016-Apr-18 16:33N 37°25' E 017°50'1716.6
2016-Apr-18 15:33N 37°21' E 018°10'9916.5
2016-Apr-18 09:33N 36°53' E 020°09'14916.2
2016-Apr-18 00:20N 36°23' E 023°12'1215.9
2016-Apr-17 23:33N 36°35' E 023°18'1716.9
2016-Apr-17 22:34N 36°51' E 023°24'1716.6
2016-Apr-17 21:33N 37°07' E 023°30'1716.6
2016-Apr-17 20:34N 37°22' E 023°37'1616.4
2016-Apr-17 19:33N 37°38' E 023°42'1615.6
2016-Apr-17 18:34N 37°53' E 023°36'4 4.1
2016-Apr-17 17:31N 37°57' E 023°35'0 0.0
2016-Apr-17 16:31N 37°57' E 023°35'0 0.0
2016-Apr-17 15:31N 37°57' E 023°35'0 0.0
2016-Apr-17 14:31N 37°57' E 023°35'0 0.0
2016-Apr-17 13:31N 37°57' E 023°35'0 0.0
2016-Apr-17 12:31N 37°57' E 023°35'0 0.0
2016-Apr-17 11:31N 37°57' E 023°35'0 0.0
2016-Apr-17 10:31N 37°57' E 023°35'0 0.0
2016-Apr-17 09:31N 37°57' E 023°35'0 0.0
2016-Apr-17 08:31N 37°57' E 023°35'0 0.0
2016-Apr-17 07:31N 37°57' E 023°35'0 0.0
2016-Apr-17 06:31N 37°57' E 023°35'0 0.0
2016-Apr-17 05:28N 37°57' E 023°35'0 0.0
2016-Apr-17 04:31N 37°57' E 023°35'0 0.0
2016-Apr-17 03:31N 37°57' E 023°35'0 0.0
2016-Apr-17 02:31N 37°57' E 023°35'0 0.0
2016-Apr-17 01:31N 37°57' E 023°35'0 0.0
2016-Apr-17 00:31N 37°57' E 023°35'0 0.0
2016-Apr-16 23:31N 37°57' E 023°35'0 0.0
2016-Apr-16 22:31N 37°57' E 023°35'0 0.0
2016-Apr-16 21:31N 37°57' E 023°35'0 0.0
2016-Apr-16 20:31N 37°57' E 023°35'  
Track history (hours):
 
Tides and Currents Weather Stations Pressure Air Temp Water Temp Dewpoint Dewpoint Depression Visibility Wind Speed Wind Dir Waves Ship Positions

Zim Luanda

Last reported at 2016-Apr-26 20:26 UTC. Time now 2016-May-01 08:03 UTC.
Position N 36°44' W 010°16'.

Length 260 m; draft 11.7 m.

Type: Ship (hazmat cat A). MMSI: 249830000.

Date/timePositionNaut miles runAvg speedWind from/ knotsBaromVisibWave heightAir tempDewpointWater temp
2016-Apr-26 20:26N 36°44' W 010°16'1714.5
2016-Apr-26 19:17N 36°36' W 009°57'1114.7
2016-Apr-26 18:34N 36°32' W 009°45'1514.8
2016-Apr-26 17:33N 36°26' W 009°28'1514.7
2016-Apr-26 16:32N 36°19' W 009°12'1414.6
2016-Apr-26 15:34N 36°15' W 008°55'16114.2
2016-Apr-26 04:13N 35°58' W 005°37'813.0
2016-Apr-26 03:33N 35°60' W 005°27'1211.5
2016-Apr-26 02:33N 36°02' W 005°13'22113.7
2016-Apr-25 10:24N 37°19' W 000°54'1214.4
2016-Apr-25 09:33N 37°28' W 000°43'1414.1
2016-Apr-25 08:33N 37°37' W 000°30'1413.8
2016-Apr-25 07:33N 37°49' W 000°21'1313.5
2016-Apr-25 06:33N 38°00' W 000°12'8411.6
2016-Apr-24 23:21N 39°24' W 000°13'6 6.1
2016-Apr-24 22:26N 39°27' W 000°19'0 0.0
2016-Apr-24 21:32N 39°27' W 000°19'0 0.0
2016-Apr-24 20:32N 39°27' W 000°19'0 0.0
2016-Apr-24 19:32N 39°27' W 000°19'0 0.0
2016-Apr-24 18:29N 39°27' W 000°19'0 0.0
2016-Apr-24 17:32N 39°27' W 000°19'0 0.0
2016-Apr-24 16:32N 39°27' W 000°19'0 0.0
2016-Apr-24 15:29N 39°27' W 000°19'0 0.0
2016-Apr-24 14:29N 39°27' W 000°19'0 0.0
2016-Apr-24 13:29N 39°27' W 000°19'0 0.0
2016-Apr-24 12:32N 39°27' W 000°19'0 0.0
2016-Apr-24 11:32N 39°27' W 000°19'0 0.0
2016-Apr-24 10:29N 39°27' W 000°19'0 0.0
2016-Apr-24 09:29N 39°27' W 000°19'0 0.3
2016-Apr-24 08:34N 39°27' W 000°19'6 6.3
2016-Apr-24 07:33N 39°27' W 000°11'5211.7
2016-Apr-24 03:06N 40°03' E 000°38'611.5
2016-Apr-24 02:33N 40°08' E 000°44'1211.5
2016-Apr-24 01:32N 40°16' E 000°55'1211.9
2016-Apr-24 00:33N 40°24' E 001°06'1211.8
2016-Apr-23 23:33N 40°32' E 001°17'1211.6
2016-Apr-23 22:33N 40°40' E 001°28'1211.7
2016-Apr-23 21:33N 40°49' E 001°39'1211.6
2016-Apr-23 20:33N 40°57' E 001°50'1211.8
2016-Apr-23 19:33N 41°05' E 002°01'1411.9
2016-Apr-23 18:25N 41°17' E 002°11'4 1.1
2016-Apr-23 14:13N 41°21' E 002°10'0 0.0
2016-Apr-23 10:31N 41°21' E 002°10'19 6.5
2016-Apr-23 07:31N 41°04' E 001°58'1111.5
2016-Apr-23 06:33N 41°03' E 001°43'1111.2
2016-Apr-23 05:33N 41°03' E 001°28'1210.6
2016-Apr-23 04:26N 41°04' E 001°12'2 0.5
2016-Apr-22 23:04N 41°03' E 001°15'814.8
2016-Apr-22 22:33N 41°02' E 001°25'1716.8
2016-Apr-22 21:33N 41°04' E 001°47'1716.5
2016-Apr-22 20:32N 41°07' E 002°09'1717.3
2016-Apr-22 19:33N 41°15' E 002°29'1716.8
2016-Apr-22 18:33N 41°24' E 002°48'5617.2
2016-Apr-22 15:19N 41°50' E 003°54'18216.9
2016-Apr-22 04:33N 43°22' E 007°26'1717.2
2016-Apr-22 03:34N 43°33' E 007°45'1817.6
2016-Apr-22 02:33N 43°43' E 008°04'1817.6
2016-Apr-22 01:33N 43°54' E 008°23'1817.5
2016-Apr-22 00:33N 44°07' E 008°41'1716.8
2016-Apr-21 23:33N 44°19' E 008°56'5 5.2
2016-Apr-21 22:32N 44°24' E 008°54'0 0.0
2016-Apr-21 21:29N 44°24' E 008°54'0 0.0
2016-Apr-21 20:32N 44°24' E 008°54'0 0.0
2016-Apr-21 19:32N 44°24' E 008°54'0 0.0
2016-Apr-21 18:29N 44°24' E 008°54'0 0.0
2016-Apr-21 17:32N 44°24' E 008°54'0 0.0
2016-Apr-21 16:23N 44°24' E 008°54'0 0.0
2016-Apr-21 15:32N 44°24' E 008°54'0 0.0
2016-Apr-21 14:32N 44°24' E 008°54'0 0.0
2016-Apr-21 13:32N 44°24' E 008°54'0 0.0
2016-Apr-21 12:29N 44°24' E 008°54'0 0.0
2016-Apr-21 11:29N 44°24' E 008°54'0 0.0
2016-Apr-21 10:32N 44°24' E 008°54'0 0.0
2016-Apr-21 09:32N 44°24' E 008°54'0 0.0
2016-Apr-21 08:32N 44°24' E 008°54'0 0.0
2016-Apr-21 07:29N 44°24' E 008°54'0 0.0
2016-Apr-21 06:32N 44°24' E 008°54'0 0.0
2016-Apr-21 05:29N 44°24' E 008°54'1 0.6
2016-Apr-21 04:33N 44°24' E 008°54'4 4.5
2016-Apr-21 03:33N 44°21' E 008°59'1313.0
2016-Apr-21 02:34N 44°09' E 009°06'1616.4
2016-Apr-21 01:34N 43°55' E 009°17'1817.9
2016-Apr-21 00:34N 43°43' E 009°36'1818.2
2016-Apr-20 23:34N 43°31' E 009°55'1615.6
2016-Apr-20 22:33N 43°32' E 010°16'3 2.6
2016-Apr-20 21:31N 43°35' E 010°18'0 0.0
2016-Apr-20 20:31N 43°35' E 010°18'0 0.0
2016-Apr-20 19:31N 43°35' E 010°18'0 0.0
2016-Apr-20 18:31N 43°35' E 010°18'0 0.0
2016-Apr-20 17:31N 43°35' E 010°18'0 0.0
2016-Apr-20 16:31N 43°35' E 010°18'0 0.0
2016-Apr-20 15:31N 43°35' E 010°18'0 0.0
2016-Apr-20 14:31N 43°35' E 010°18'0 0.0
2016-Apr-20 13:31N 43°35' E 010°18'0 0.0
2016-Apr-20 12:31N 43°35' E 010°18'0 0.0
2016-Apr-20 11:31N 43°35' E 010°18'0 0.0
2016-Apr-20 10:31N 43°35' E 010°18'0 0.0
2016-Apr-20 09:31N 43°35' E 010°18'0 0.0
2016-Apr-20 08:31N 43°35' E 010°18'0 0.0
2016-Apr-20 07:34N 43°35' E 010°18'0 0.0
2016-Apr-20 06:34N 43°35' E 010°18'0 0.0
2016-Apr-20 05:33N 43°35' E 010°18'1 0.7
2016-Apr-20 04:33N 43°34' E 010°18'8 6.9
2016-Apr-20 03:20N 43°26' E 010°13'25914.6
2016-Apr-19 09:33N 39°57' E 013°38'1515.5
2016-Apr-19 08:33N 39°46' E 013°52'1515.4
2016-Apr-19 07:33N 39°35' E 014°06'1515.4
2016-Apr-19 06:33N 39°24' E 014°20'4815.4
2016-Apr-19 03:26N 38°50' E 015°03'1315.0
2016-Apr-19 02:33N 38°41' E 015°15'1514.9
2016-Apr-19 01:33N 38°30' E 015°28'1515.3
2016-Apr-19 00:34N 38°19' E 015°42'1515.1
2016-Apr-18 23:34N 38°04' E 015°37'1715.6
2016-Apr-18 22:30N 37°52' E 015°51'1716.3
2016-Apr-18 21:26N 37°47' E 016°12'1516.3
2016-Apr-18 20:30N 37°43' E 016°31'1616.3
2016-Apr-18 19:32N 37°38' E 016°49'1716.7
2016-Apr-18 18:33N 37°33' E 017°09'1716.7
2016-Apr-18 17:33N 37°29' E 017°30'1616.5
2016-Apr-18 16:33N 37°25' E 017°50'1716.6
2016-Apr-18 15:33N 37°21' E 018°10'9916.5
2016-Apr-18 09:33N 36°53' E 020°09'14916.2
2016-Apr-18 00:20N 36°23' E 023°12'1215.9
2016-Apr-17 23:33N 36°35' E 023°18'1716.9
2016-Apr-17 22:34N 36°51' E 023°24'1716.6
2016-Apr-17 21:33N 37°07' E 023°30'1716.6
2016-Apr-17 20:34N 37°22' E 023°37'1616.4
2016-Apr-17 19:33N 37°38' E 023°42'1615.6
2016-Apr-17 18:34N 37°53' E 023°36'4 4.1
2016-Apr-17 17:31N 37°57' E 023°35'0 0.0
2016-Apr-17 16:31N 37°57' E 023°35'0 0.0
2016-Apr-17 15:31N 37°57' E 023°35'0 0.0
2016-Apr-17 14:31N 37°57' E 023°35'0 0.0
2016-Apr-17 13:31N 37°57' E 023°35'0 0.0
2016-Apr-17 12:31N 37°57' E 023°35'0 0.0
2016-Apr-17 11:31N 37°57' E 023°35'0 0.0
2016-Apr-17 10:31N 37°57' E 023°35'0 0.0
2016-Apr-17 09:31N 37°57' E 023°35'0 0.0
2016-Apr-17 08:31N 37°57' E 023°35'0 0.0
2016-Apr-17 07:31N 37°57' E 023°35'0 0.0
2016-Apr-17 06:31N 37°57' E 023°35'0 0.0
2016-Apr-17 05:28N 37°57' E 023°35'0 0.0
2016-Apr-17 04:31N 37°57' E 023°35'0 0.0
2016-Apr-17 03:31N 37°57' E 023°35'0 0.0
2016-Apr-17 02:31N 37°57' E 023°35'0 0.0
2016-Apr-17 01:31N 37°57' E 023°35'0 0.0
2016-Apr-17 00:31N 37°57' E 023°35'0 0.0
2016-Apr-16 23:31N 37°57' E 023°35'0 0.0
2016-Apr-16 22:31N 37°57' E 023°35'0 0.0
2016-Apr-16 21:31N 37°57' E 023°35'0 0.0
2016-Apr-16 20:31N 37°57' E 023°35'  

Dump ship's entire track history